Startpagina
METAR-TAF:

METAR-TAF

Vliegvelden :

Meiringen, Zwitserland

breedte: 46-44-25N, lengte: 8-06-36E, hoogte: 577 m

Actueel weer

Dit bericht is 25 minuten geleden gemaakt, om 17:50 UTC
Wind 5 kt uit variabele richting
Temperatuur 18°C
Vochtigheid 39%
Druk 1019 hPa
Zicht 10 km of meer
Verspreide wolken op 6500 ft

METAR: LSMM 291750Z AUTO VRB05KT 9999NDV SCT065 18/04 Q1019 RMK

Tijdstip: 20:15 (18:15 UTC)


TAF: ontbreekt

Waarnemingen en weersverwachtingen van meer dan 4000 vliegvelden (METAR en TAF).

De beschikbare stations zijn de gele en rode punten op de kaart.

Ga met uw muis naar het station om de naam te zien.

Klik dan om waarnemingen en weersverwachtingen te zien.

kaart wijzigen: klik op de groene knoppen met een zwart kruis om in te zoomen, op de groene knop met een streepje om uit te zoomen of op de groene pijlen voor aangrenzende kaarten.


METAR-TAF: